Time;durP1;ratioP1;P1;durP2;ratioP2;P2;SDS_P1;SDS_P2;PMS_P1;PMS_P2;Temp;Humidity;BMP_temperature;BMP_pressure;BME280_temperature;BME280_humidity;BME280_pressure;Samples;Min_cycle;Max_cycle;Signal;HPM_P1;HPM_P2
2023/08/04 00:01:26;;;;;;;5.20;1.93;;;16.90;99.90;;;;;;5059599;28;20463;-72
2023/08/04 00:04:13;;;;;;;2.57;1.60;;;17.00;99.90;;;;;;5058546;28;20541;-72
2023/08/04 00:06:58;;;;;;;3.70;1.80;;;17.00;99.90;;;;;;5069903;28;20922;-72
2023/08/04 00:09:45;;;;;;;4.40;1.50;;;17.00;99.90;;;;;;5071381;28;20799;-72
2023/08/04 00:12:30;;;;;;;4.87;1.70;;;17.00;99.90;;;;;;5068490;28;20551;-72
2023/08/04 00:15:16;;;;;;;2.63;1.37;;;17.00;99.90;;;;;;5067541;28;20459;-72
2023/08/04 00:18:03;;;;;;;11.33;2.20;;;17.00;99.90;;;;;;5077670;28;20417;-72
2023/08/04 00:20:48;;;;;;;7.70;2.57;;;17.00;99.90;;;;;;5066318;28;20426;-71
2023/08/04 00:23:34;;;;;;;5.40;1.70;;;17.00;99.90;;;;;;5064372;28;20447;-72
2023/08/04 00:26:21;;;;;;;5.20;1.53;;;17.00;99.90;;;;;;5057849;28;21047;-72
2023/08/04 00:29:06;;;;;;;2.20;1.20;;;17.00;99.90;;;;;;5065713;28;20471;-72
2023/08/04 00:31:52;;;;;;;4.33;1.30;;;17.00;99.90;;;;;;5057418;28;20527;-72
2023/08/04 00:34:37;;;;;;;10.00;2.23;;;17.00;99.90;;;;;;5067601;28;20784;-72
2023/08/04 00:37:23;;;;;;;3.80;1.50;;;17.00;99.90;;;;;;5071989;28;20488;-72
2023/08/04 00:40:09;;;;;;;6.00;1.60;;;17.00;99.90;;;;;;5060707;28;20443;-72
2023/08/04 00:42:56;;;;;;;7.00;1.47;;;17.00;99.90;;;;;;5060447;28;20826;-72
2023/08/04 00:45:42;;;;;;;10.90;1.70;;;17.00;99.90;;;;;;5064572;28;20421;-72
2023/08/04 00:48:27;;;;;;;3.37;2.13;;;17.00;99.90;;;;;;5060328;28;20463;-72
2023/08/04 00:51:13;;;;;;;5.20;1.83;;;17.00;99.90;;;;;;5063778;28;20478;-72
2023/08/04 00:53:59;;;;;;;6.03;1.60;;;17.00;99.90;;;;;;5060803;28;20455;-72
2023/08/04 00:56:45;;;;;;;5.43;1.90;;;17.00;99.90;;;;;;5065244;28;20578;-72
2023/08/04 00:59:32;;;;;;;12.43;1.57;;;17.10;99.90;;;;;;5069729;28;20512;-72
2023/08/04 01:02:18;;;;;;;10.90;1.80;;;17.00;99.90;;;;;;5063710;28;20490;-72
2023/08/04 01:05:04;;;;;;;5.30;2.03;;;17.00;99.90;;;;;;5069202;28;20420;-72
2023/08/04 01:07:54;;;;;;;4.17;2.03;;;17.00;99.90;;;;;;5059586;28;21008;-72
2023/08/04 01:10:47;;;;;;;3.33;1.60;;;16.90;99.90;;;;;;5071640;28;20458;-72
2023/08/04 01:13:34;;;;;;;8.13;3.03;;;17.00;99.90;;;;;;5060892;28;20487;-72
2023/08/04 01:16:21;;;;;;;4.80;1.90;;;17.00;99.90;;;;;;5059260;28;20729;-72
2023/08/04 01:19:07;;;;;;;9.67;1.87;;;17.00;99.90;;;;;;5059927;28;20438;-72
2023/08/04 01:21:53;;;;;;;4.80;1.63;;;17.00;99.90;;;;;;5061631;28;21024;-72
2023/08/04 01:24:39;;;;;;;9.03;2.20;;;17.00;99.90;;;;;;5065688;28;20433;-72
2023/08/04 01:27:31;;;;;;;4.53;2.20;;;17.00;99.90;;;;;;5066227;28;21154;-72
2023/08/04 01:30:20;;;;;;;4.07;1.77;;;16.90;99.90;;;;;;5067423;28;20483;-72
2023/08/04 01:33:06;;;;;;;4.20;1.97;;;16.80;99.90;;;;;;5071171;28;20414;-72
2023/08/04 01:35:52;;;;;;;6.80;2.03;;;16.90;99.90;;;;;;5059561;28;20473;-72
2023/08/04 01:38:39;;;;;;;4.43;2.13;;;16.90;99.90;;;;;;5065492;28;20493;-72
2023/08/04 01:41:25;;;;;;;3.57;2.07;;;16.90;99.90;;;;;;5063604;28;20893;-72
2023/08/04 01:44:10;;;;;;;7.60;2.23;;;16.90;99.90;;;;;;5065142;28;20811;-72
2023/08/04 01:46:56;;;;;;;6.47;2.50;;;16.90;99.90;;;;;;5058652;28;20418;-72
2023/08/04 01:49:41;;;;;;;6.33;2.30;;;16.90;99.90;;;;;;5056553;28;20475;-72
2023/08/04 01:52:26;;;;;;;8.07;2.10;;;16.80;99.90;;;;;;5055716;28;20457;-72
2023/08/04 01:55:13;;;;;;;3.87;1.87;;;16.90;99.90;;;;;;5055946;28;20444;-72
2023/08/04 01:57:59;;;;;;;3.00;1.60;;;16.90;99.90;;;;;;5063526;28;20450;-72
2023/08/04 02:00:44;;;;;;;3.07;1.97;;;16.90;99.90;;;;;;5056899;28;20488;-72
2023/08/04 02:03:32;;;;;;;6.53;2.10;;;16.90;99.90;;;;;;5053444;28;20482;-72
2023/08/04 02:06:18;;;;;;;4.37;1.80;;;17.00;99.90;;;;;;5062038;28;20459;-72
2023/08/04 02:09:04;;;;;;;6.23;3.03;;;17.00;99.90;;;;;;5063430;28;20935;-72
2023/08/04 02:11:50;;;;;;;4.73;2.27;;;16.90;99.90;;;;;;5059238;28;20532;-72
2023/08/04 02:14:36;;;;;;;7.77;2.13;;;16.90;99.90;;;;;;5059337;28;20919;-72
2023/08/04 02:17:21;;;;;;;7.13;2.20;;;16.80;99.90;;;;;;5065301;28;20435;-72
2023/08/04 02:20:08;;;;;;;2.47;1.93;;;16.80;99.90;;;;;;5070532;28;20451;-72
2023/08/04 02:22:53;;;;;;;4.17;1.93;;;16.80;99.90;;;;;;5079267;28;20424;-71
2023/08/04 02:25:39;;;;;;;4.50;2.30;;;16.90;99.90;;;;;;5064564;28;20442;-72
2023/08/04 02:28:26;;;;;;;7.07;2.17;;;16.90;99.90;;;;;;5069227;28;20777;-72
2023/08/04 02:31:11;;;;;;;7.83;2.73;;;16.90;99.90;;;;;;5070774;28;20974;-72
2023/08/04 02:33:57;;;;;;;5.53;2.13;;;16.90;99.90;;;;;;5072347;28;20871;-72
2023/08/04 02:36:42;;;;;;;4.00;2.00;;;16.90;99.90;;;;;;5068713;28;20446;-72
2023/08/04 02:39:28;;;;;;;4.90;1.97;;;16.90;99.90;;;;;;5070402;28;20493;-72
2023/08/04 02:42:13;;;;;;;6.10;1.90;;;16.90;99.90;;;;;;5064175;28;20560;-72
2023/08/04 02:45:00;;;;;;;5.20;2.40;;;16.90;99.90;;;;;;5062415;28;20417;-72
2023/08/04 02:47:46;;;;;;;3.80;2.30;;;16.80;99.90;;;;;;5068494;28;20434;-72
2023/08/04 02:50:31;;;;;;;4.63;2.07;;;16.70;99.90;;;;;;5068768;28;20563;-72
2023/08/04 02:53:16;;;;;;;3.17;2.00;;;16.80;99.90;;;;;;5058649;28;20437;-72
2023/08/04 02:56:09;;;;;;;5.23;2.33;;;16.80;99.90;;;;;;5067012;28;20452;-72
2023/08/04 02:58:54;;;;;;;5.50;2.53;;;16.80;99.90;;;;;;5064576;28;20532;-72
2023/08/04 03:01:41;;;;;;;8.13;2.30;;;16.80;99.90;;;;;;5065797;28;20442;-72
2023/08/04 03:04:27;;;;;;;5.53;1.93;;;16.80;99.90;;;;;;5063836;28;20439;-72
2023/08/04 03:07:12;;;;;;;9.43;1.77;;;16.80;99.90;;;;;;5068513;28;20483;-72
2023/08/04 03:09:58;;;;;;;4.03;1.90;;;16.90;99.90;;;;;;5067869;28;20476;-72
2023/08/04 03:12:43;;;;;;;4.60;2.13;;;16.90;99.90;;;;;;5065737;28;20903;-72
2023/08/04 03:15:29;;;;;;;3.20;1.57;;;16.90;99.90;;;;;;5069427;28;21155;-72
2023/08/04 03:18:16;;;;;;;11.60;2.33;;;16.90;99.90;;;;;;5060037;28;20443;-72
2023/08/04 03:21:02;;;;;;;3.20;2.10;;;16.90;99.90;;;;;;5073572;28;20439;-72
2023/08/04 03:23:47;;;;;;;2.63;1.50;;;16.90;99.90;;;;;;5062292;28;20899;-72
2023/08/04 03:26:33;;;;;;;5.23;2.10;;;16.90;99.90;;;;;;5081071;28;20482;-72
2023/08/04 03:29:18;;;;;;;4.97;1.67;;;16.90;99.90;;;;;;5076320;28;20452;-72
2023/08/04 03:32:05;;;;;;;5.43;2.00;;;16.90;99.90;;;;;;5074637;28;20555;-72
2023/08/04 03:34:52;;;;;;;7.40;1.83;;;16.90;99.90;;;;;;5059181;28;20501;-72
2023/08/04 03:37:37;;;;;;;3.80;1.80;;;16.90;99.90;;;;;;5071080;28;20417;-72
2023/08/04 03:40:23;;;;;;;6.00;1.80;;;16.90;99.90;;;;;;5069249;28;20456;-72
2023/08/04 03:43:08;;;;;;;2.90;1.37;;;16.90;99.90;;;;;;5061083;28;20418;-72
2023/08/04 03:45:54;;;;;;;6.90;2.10;;;16.90;99.90;;;;;;5062733;28;20442;-72
2023/08/04 03:48:39;;;;;;;5.50;1.93;;;16.80;99.90;;;;;;5076356;28;20418;-72
2023/08/04 03:51:26;;;;;;;5.77;1.70;;;16.70;99.90;;;;;;5061700;28;20487;-72
2023/08/04 03:54:11;;;;;;;6.90;2.27;;;16.80;99.90;;;;;;5061720;28;20443;-72
2023/08/04 03:56:57;;;;;;;5.73;2.20;;;16.80;99.90;;;;;;5076916;28;20450;-72
2023/08/04 03:59:43;;;;;;;8.97;3.00;;;16.80;99.90;;;;;;5071198;28;20412;-72
2023/08/04 04:02:28;;;;;;;4.50;2.37;;;16.80;99.90;;;;;;5062951;28;20482;-72
2023/08/04 04:05:14;;;;;;;9.93;2.43;;;16.90;99.90;;;;;;5077122;28;20426;-72
2023/08/04 04:08:01;;;;;;;2.40;1.70;;;16.90;99.90;;;;;;5071987;28;20493;-72
2023/08/04 04:10:48;;;;;;;6.30;2.90;;;16.90;99.90;;;;;;5070541;28;20482;-72
2023/08/04 04:13:33;;;;;;;4.37;2.27;;;16.90;99.90;;;;;;5070923;28;20502;-72
2023/08/04 04:16:18;;;;;;;2.53;1.80;;;16.90;99.90;;;;;;5071110;28;20477;-72
2023/08/04 04:19:04;;;;;;;4.23;2.50;;;16.90;99.90;;;;;;5079850;28;20543;-72
2023/08/04 04:21:49;;;;;;;2.80;1.80;;;16.80;99.90;;;;;;5069935;28;20795;-71
2023/08/04 04:24:36;;;;;;;7.27;2.00;;;16.70;99.90;;;;;;5068388;28;20568;-72
2023/08/04 04:27:21;;;;;;;3.23;1.60;;;16.70;99.90;;;;;;5067769;28;20446;-72
2023/08/04 04:30:08;;;;;;;8.80;2.30;;;16.70;99.90;;;;;;5076029;28;20441;-72
2023/08/04 04:32:53;;;;;;;3.80;2.23;;;16.80;99.90;;;;;;5069212;28;20454;-71
2023/08/04 04:35:39;;;;;;;5.93;2.63;;;16.70;99.90;;;;;;5065497;28;20429;-71
2023/08/04 04:38:27;;;;;;;7.63;2.37;;;16.60;99.90;;;;;;5065771;28;20540;-72
2023/08/04 04:41:14;;;;;;;5.83;2.90;;;16.50;99.90;;;;;;5067587;28;20496;-72
2023/08/04 04:43:59;;;;;;;4.07;2.10;;;16.40;99.90;;;;;;5068248;28;20487;-72
2023/08/04 04:46:45;;;;;;;3.33;1.90;;;16.50;99.90;;;;;;5069073;28;20909;-72
2023/08/04 04:49:31;;;;;;;5.67;2.23;;;16.50;99.90;;;;;;5063915;28;20417;-72
2023/08/04 04:52:34;;;;;;;2.73;1.80;;;16.50;99.90;;;;;;5072978;28;21024;-72
2023/08/04 04:55:19;;;;;;;7.07;2.40;;;16.50;99.90;;;;;;5065853;28;20421;-72
2023/08/04 04:58:06;;;;;;;9.77;2.23;;;16.60;99.90;;;;;;5060661;28;20432;-72
2023/08/04 05:00:52;;;;;;;4.80;2.60;;;16.60;99.90;;;;;;5063288;28;20425;-72
2023/08/04 05:03:37;;;;;;;6.00;2.00;;;16.60;99.90;;;;;;5074345;28;20447;-72
2023/08/04 05:06:23;;;;;;;4.33;2.00;;;16.60;99.90;;;;;;5063662;28;20938;-72
2023/08/04 05:09:09;;;;;;;4.80;3.00;;;16.60;99.90;;;;;;5062342;28;21068;-72
2023/08/04 05:11:53;;;;;;;5.80;2.50;;;16.60;99.90;;;;;;5059533;28;20550;-72
2023/08/04 05:14:41;;;;;;;2.87;1.90;;;16.60;99.90;;;;;;5060982;28;20463;-72
2023/08/04 05:17:26;;;;;;;4.83;2.03;;;16.60;99.90;;;;;;5069598;28;20418;-72
2023/08/04 05:20:13;;;;;;;5.20;2.00;;;16.60;99.90;;;;;;5058120;28;20467;-72
2023/08/04 05:22:58;;;;;;;5.53;3.80;;;16.60;99.90;;;;;;5066558;28;21125;-72
2023/08/04 05:25:44;;;;;;;3.90;1.87;;;16.70;99.90;;;;;;5056824;28;20513;-72
2023/08/04 05:28:32;;;;;;;7.37;2.17;;;16.70;99.90;;;;;;5066756;28;20461;-72
2023/08/04 05:31:19;;;;;;;5.70;2.23;;;16.70;99.90;;;;;;5070154;28;20683;-72
2023/08/04 05:34:04;;;;;;;3.63;2.03;;;16.70;99.90;;;;;;5058141;28;20450;-72
2023/08/04 05:36:50;;;;;;;5.57;2.37;;;16.70;99.90;;;;;;5066887;28;20416;-72
2023/08/04 05:39:35;;;;;;;6.93;2.73;;;16.80;99.90;;;;;;5068615;28;20475;-72
2023/08/04 05:42:21;;;;;;;3.63;2.13;;;16.80;99.90;;;;;;5070555;28;20444;-72
2023/08/04 05:45:09;;;;;;;3.50;2.10;;;16.80;99.90;;;;;;5066500;28;20423;-72
2023/08/04 05:47:55;;;;;;;4.87;2.57;;;16.80;99.90;;;;;;5065946;28;20770;-72
2023/08/04 05:50:41;;;;;;;11.47;2.13;;;16.90;99.90;;;;;;5064903;28;20537;-72
2023/08/04 05:53:26;;;;;;;4.80;2.47;;;16.90;99.90;;;;;;5064476;28;20791;-72
2023/08/04 05:56:12;;;;;;;9.23;2.53;;;16.90;99.90;;;;;;5066284;28;20450;-72
2023/08/04 05:58:57;;;;;;;6.83;3.33;;;16.90;99.90;;;;;;5070603;28;20593;-72
2023/08/04 06:01:43;;;;;;;10.77;3.20;;;16.90;99.90;;;;;;5075319;28;20461;-72
2023/08/04 06:04:30;;;;;;;4.93;3.17;;;16.80;99.90;;;;;;5081651;28;20512;-73
2023/08/04 06:07:15;;;;;;;3.50;2.20;;;16.80;99.90;;;;;;5077266;28;20449;-72
2023/08/04 06:10:01;;;;;;;6.13;3.13;;;16.70;99.90;;;;;;5063252;28;20427;-72
2023/08/04 06:12:47;;;;;;;6.40;3.53;;;16.70;99.90;;;;;;5072672;28;20964;-72
2023/08/04 06:15:32;;;;;;;8.20;2.70;;;16.80;99.90;;;;;;5067478;28;20823;-72
2023/08/04 06:18:18;;;;;;;5.87;2.60;;;16.70;99.90;;;;;;5065776;28;20524;-72
2023/08/04 06:21:05;;;;;;;8.30;3.90;;;16.60;99.90;;;;;;5065833;28;20539;-72
2023/08/04 06:23:50;;;;;;;5.10;2.37;;;16.60;99.90;;;;;;5065250;28;20420;-72
2023/08/04 06:26:35;;;;;;;4.67;2.50;;;16.70;99.90;;;;;;5066170;28;20433;-72
2023/08/04 06:29:21;;;;;;;4.70;2.50;;;16.60;99.90;;;;;;5071689;28;20486;-72
2023/08/04 06:32:07;;;;;;;5.87;2.73;;;16.60;99.90;;;;;;5076138;28;20452;-72
2023/08/04 06:34:53;;;;;;;5.70;2.20;;;16.70;99.90;;;;;;5074858;28;20520;-72
2023/08/04 06:37:40;;;;;;;2.90;2.03;;;16.60;99.90;;;;;;5074571;28;20856;-72
2023/08/04 06:40:25;;;;;;;5.53;2.77;;;16.60;99.90;;;;;;5061718;28;20418;-72
2023/08/04 06:43:11;;;;;;;6.53;3.17;;;16.70;99.90;;;;;;5069795;28;20794;-72
2023/08/04 06:45:56;;;;;;;4.50;2.30;;;16.70;99.90;;;;;;5085419;28;20405;-72
2023/08/04 06:48:41;;;;;;;6.57;2.23;;;16.80;99.90;;;;;;5072611;28;20997;-72
2023/08/04 06:51:27;;;;;;;5.60;2.57;;;16.70;99.90;;;;;;5064001;28;20528;-72
2023/08/04 06:54:14;;;;;;;3.57;2.50;;;16.70;99.90;;;;;;5074386;28;20560;-72
2023/08/04 06:56:59;;;;;;;3.70;2.33;;;16.80;99.90;;;;;;5057711;28;20796;-72
2023/08/04 06:59:45;;;;;;;4.73;3.33;;;16.80;99.90;;;;;;5067233;28;20822;-72
2023/08/04 07:02:30;;;;;;;4.20;3.80;;;16.80;99.90;;;;;;5064777;28;20456;-72
2023/08/04 07:05:16;;;;;;;4.90;3.93;;;16.70;99.90;;;;;;5069442;28;21224;-72
2023/08/04 07:08:02;;;;;;;5.37;4.03;;;16.70;99.90;;;;;;5073036;28;20925;-72
2023/08/04 07:10:48;;;;;;;4.00;3.60;;;16.80;99.90;;;;;;5068040;28;20520;-72
2023/08/04 07:13:34;;;;;;;5.20;4.33;;;16.80;99.90;;;;;;5069142;28;23290;-72
2023/08/04 07:16:19;;;;;;;8.97;4.23;;;16.80;99.90;;;;;;5067421;28;20961;-72
2023/08/04 07:19:05;;;;;;;7.90;4.90;;;16.80;99.90;;;;;;5067730;28;20416;-72
2023/08/04 07:21:51;;;;;;;7.53;4.07;;;16.80;99.90;;;;;;5064243;28;20517;-72
2023/08/04 07:24:36;;;;;;;8.23;4.67;;;16.90;99.90;;;;;;5065222;28;20439;-72
2023/08/04 07:27:23;;;;;;;7.60;5.40;;;16.90;99.90;;;;;;5065273;28;20497;-72
2023/08/04 07:30:09;;;;;;;6.90;5.13;;;16.90;99.90;;;;;;5073843;28;20430;-72
2023/08/04 07:32:54;;;;;;;6.47;4.77;;;16.80;99.90;;;;;;5074109;28;20471;-72
2023/08/04 07:35:40;;;;;;;5.23;4.07;;;16.90;99.90;;;;;;5069029;28;20878;-72
2023/08/04 07:38:28;;;;;;;6.97;5.33;;;16.90;99.90;;;;;;5069627;28;20541;-72
2023/08/04 07:41:18;;;;;;;6.20;5.47;;;17.00;99.90;;;;;;5073324;28;20438;-72
2023/08/04 07:44:05;;;;;;;6.00;5.20;;;16.90;99.90;;;;;;5066752;28;20934;-72
2023/08/04 07:46:50;;;;;;;7.60;4.67;;;16.90;99.90;;;;;;5062478;28;20423;-72
2023/08/04 07:49:36;;;;;;;8.87;3.20;;;16.90;99.90;;;;;;5065157;28;20435;-72
2023/08/04 07:52:21;;;;;;;3.33;2.40;;;16.90;99.90;;;;;;5060950;28;20506;-72
2023/08/04 07:55:09;;;;;;;6.37;2.10;;;16.80;99.90;;;;;;5067046;28;20950;-72
2023/08/04 07:57:55;;;;;;;2.60;1.90;;;16.80;99.90;;;;;;5066771;28;20555;-72
2023/08/04 08:00:42;;;;;;;2.77;1.77;;;16.70;99.90;;;;;;5071666;28;20462;-72
2023/08/04 08:03:27;;;;;;;2.70;1.60;;;16.60;99.90;;;;;;5059499;28;20691;-72
2023/08/04 08:06:12;;;;;;;2.17;1.40;;;16.60;99.90;;;;;;5064602;28;20472;-72
2023/08/04 08:08:58;;;;;;;2.00;1.20;;;16.60;99.90;;;;;;5060657;28;20445;-72
2023/08/04 08:11:43;;;;;;;1.93;1.43;;;16.60;99.90;;;;;;5061825;28;20516;-72
2023/08/04 08:14:29;;;;;;;2.37;1.27;;;16.60;99.90;;;;;;5067133;28;20442;-72
2023/08/04 08:17:16;;;;;;;2.10;1.40;;;16.60;99.90;;;;;;5069397;28;20953;-72
2023/08/04 08:20:01;;;;;;;2.07;1.53;;;16.60;99.90;;;;;;5073738;28;20957;-72
2023/08/04 08:22:47;;;;;;;2.97;2.10;;;16.60;99.90;;;;;;5061600;28;20570;-71
2023/08/04 08:25:33;;;;;;;3.57;2.10;;;16.60;99.90;;;;;;5060300;28;20806;-71
2023/08/04 08:28:18;;;;;;;2.90;2.20;;;16.70;99.90;;;;;;5059346;28;20459;-71
2023/08/04 08:31:04;;;;;;;3.30;2.40;;;16.60;99.90;;;;;;5061526;28;20624;-71
2023/08/04 08:33:51;;;;;;;2.90;1.80;;;16.70;99.90;;;;;;5063894;28;20426;-71
2023/08/04 08:36:36;;;;;;;4.23;2.80;;;16.70;99.90;;;;;;5070978;28;20428;-70
2023/08/04 08:39:23;;;;;;;4.77;2.63;;;16.80;99.90;;;;;;5064707;28;20939;-70
2023/08/04 08:42:08;;;;;;;3.80;2.87;;;16.80;99.90;;;;;;5062487;28;20448;-72
2023/08/04 08:44:55;;;;;;;5.67;2.97;;;17.00;99.90;;;;;;5069480;28;20420;-72
2023/08/04 08:47:42;;;;;;;6.43;3.67;;;17.00;99.90;;;;;;5075776;28;20463;-72
2023/08/04 08:50:30;;;;;;;4.13;3.27;;;17.00;99.90;;;;;;5070547;28;20460;-72
2023/08/04 08:53:22;;;;;;;4.00;2.80;;;17.00;99.90;;;;;;5072485;28;20412;-72
2023/08/04 08:56:09;;;;;;;4.93;3.37;;;17.00;99.90;;;;;;5078472;28;20450;-72
2023/08/04 08:58:56;;;;;;;4.03;3.10;;;17.10;99.90;;;;;;5074461;28;20446;-72
2023/08/04 09:01:42;;;;;;;3.83;2.57;;;17.10;99.90;;;;;;5064677;28;20508;-72
2023/08/04 09:04:29;;;;;;;7.23;3.20;;;17.20;99.90;;;;;;5076888;28;20459;-72
2023/08/04 09:07:15;;;;;;;5.70;3.27;;;17.20;99.90;;;;;;5062947;28;20659;-72
2023/08/04 09:10:01;;;;;;;4.30;2.60;;;17.20;99.90;;;;;;5063451;28;20438;-72
2023/08/04 09:12:48;;;;;;;4.93;3.13;;;17.30;99.90;;;;;;5079352;28;20479;-72
2023/08/04 09:15:34;;;;;;;3.80;2.70;;;17.30;99.90;;;;;;5063947;28;20460;-70
2023/08/04 09:18:27;;;;;;;3.47;2.47;;;17.30;99.90;;;;;;5064200;28;20440;-71
2023/08/04 09:21:14;;;;;;;4.53;2.57;;;17.40;99.90;;;;;;5064986;28;20535;-72
2023/08/04 09:24:03;;;;;;;3.80;2.60;;;17.40;99.90;;;;;;5071077;28;20430;-72
2023/08/04 09:26:48;;;;;;;3.33;2.43;;;17.40;99.90;;;;;;5059114;28;20475;-72
2023/08/04 09:29:34;;;;;;;5.90;2.77;;;17.50;99.90;;;;;;5059267;28;20430;-72
2023/08/04 09:32:22;;;;;;;5.30;2.73;;;17.50;99.90;;;;;;5066261;28;20637;-72
2023/08/04 09:35:09;;;;;;;7.00;2.63;;;17.60;99.90;;;;;;5072259;28;20956;-72
2023/08/04 09:37:56;;;;;;;3.40;2.80;;;17.70;99.90;;;;;;5075033;28;20947;-72
2023/08/04 09:40:43;;;;;;;3.40;2.63;;;17.80;99.90;;;;;;5069876;28;20420;-72
2023/08/04 09:43:29;;;;;;;4.20;3.07;;;17.90;99.90;;;;;;5069168;28;20417;-72
2023/08/04 09:46:15;;;;;;;4.00;3.13;;;17.90;99.90;;;;;;5058362;28;20497;-72
2023/08/04 09:49:00;;;;;;;5.60;3.43;;;17.90;99.90;;;;;;5060429;28;21268;-72
2023/08/04 09:51:46;;;;;;;6.30;3.50;;;18.00;99.90;;;;;;5055930;28;20547;-72
2023/08/04 09:54:32;;;;;;;5.23;3.43;;;18.10;99.90;;;;;;5060925;28;20518;-73
2023/08/04 09:57:19;;;;;;;4.70;3.73;;;18.30;99.90;;;;;;5062285;28;20980;-72
2023/08/04 10:00:06;;;;;;;4.27;3.37;;;18.30;99.90;;;;;;5066148;28;20937;-71
2023/08/04 10:02:54;;;;;;;4.03;3.10;;;18.40;99.90;;;;;;5078414;28;20473;-71
2023/08/04 10:05:40;;;;;;;4.77;3.40;;;18.40;99.90;;;;;;5052709;28;20463;-71
2023/08/04 10:08:26;;;;;;;5.80;3.17;;;18.40;99.90;;;;;;5068808;28;20586;-71
2023/08/04 10:11:12;;;;;;;4.43;2.70;;;18.50;99.90;;;;;;5066065;28;20493;-72
2023/08/04 10:14:00;;;;;;;5.23;3.23;;;18.50;99.90;;;;;;5075244;28;20477;-72
2023/08/04 10:16:46;;;;;;;5.57;2.97;;;18.60;99.90;;;;;;5060070;28;21014;-71
2023/08/04 10:19:34;;;;;;;6.37;2.50;;;18.70;99.90;;;;;;5065020;28;20561;-72
2023/08/04 10:22:21;;;;;;;4.80;3.07;;;18.80;99.90;;;;;;5064198;28;20967;-72
2023/08/04 10:25:14;;;;;;;4.30;3.10;;;18.70;99.90;;;;;;5066024;28;20455;-72
2023/08/04 10:27:59;;;;;;;4.20;2.80;;;18.80;99.90;;;;;;5077826;28;21076;-72
2023/08/04 10:30:46;;;;;;;3.40;2.63;;;18.80;99.90;;;;;;5070949;28;20454;-72
2023/08/04 10:33:31;;;;;;;3.00;2.40;;;19.00;99.90;;;;;;5081060;28;20438;-71
2023/08/04 10:36:18;;;;;;;3.97;2.77;;;19.00;99.90;;;;;;5072351;28;21094;-72
2023/08/04 10:39:23;;;;;;;3.57;2.37;;;19.00;99.90;;;;;;5072656;28;20484;-72
2023/08/04 10:42:16;;;;;;;3.20;2.27;;;19.10;99.90;;;;;;5073631;28;20835;-72
2023/08/04 10:45:04;;;;;;;3.23;2.30;;;19.10;99.90;;;;;;5087511;28;20913;-71
2023/08/04 10:47:53;;;;;;;3.40;2.73;;;19.20;99.90;;;;;;5083025;28;20499;-72
2023/08/04 10:50:39;;;;;;;3.30;2.10;;;19.30;99.90;;;;;;5079441;28;21303;-72
2023/08/04 10:53:24;;;;;;;4.50;3.00;;;19.30;99.90;;;;;;5081815;28;20448;-71
2023/08/04 10:56:10;;;;;;;4.77;2.10;;;19.40;99.90;;;;;;5072823;28;20442;-72
2023/08/04 10:58:56;;;;;;;3.40;2.70;;;19.50;99.90;;;;;;5066129;28;20871;-71
2023/08/04 11:01:42;;;;;;;3.23;2.23;;;19.50;99.90;;;;;;5079868;28;20496;-71
2023/08/04 11:04:29;;;;;;;3.30;2.87;;;19.60;99.90;;;;;;5078153;28;20804;-72
2023/08/04 11:07:15;;;;;;;3.90;2.80;;;19.70;99.90;;;;;;5067356;28;20525;-72
2023/08/04 11:10:05;;;;;;;4.50;2.90;;;19.80;99.90;;;;;;5075456;28;20464;-71
2023/08/04 11:12:50;;;;;;;3.67;3.13;;;19.80;99.90;;;;;;5060192;28;20497;-72
2023/08/04 11:15:42;;;;;;;4.17;2.77;;;19.80;99.90;;;;;;5062399;28;20451;-71
2023/08/04 11:18:30;;;;;;;3.90;3.00;;;19.70;99.90;;;;;;5067835;28;20835;-71
2023/08/04 11:21:17;;;;;;;5.40;2.43;;;19.60;99.90;;;;;;5070029;28;20468;-71
2023/08/04 11:24:03;;;;;;;4.77;2.87;;;19.70;99.90;;;;;;5078416;28;20445;-71
2023/08/04 11:26:50;;;;;;;3.47;2.53;;;19.70;99.90;;;;;;5071670;28;21177;-71
2023/08/04 11:29:36;;;;;;;3.00;2.50;;;19.80;99.90;;;;;;5065790;28;20451;-71
2023/08/04 11:32:23;;;;;;;8.80;2.80;;;19.80;99.90;;;;;;5063219;28;20875;-71
2023/08/04 11:35:09;;;;;;;4.10;2.53;;;19.70;99.90;;;;;;5066491;28;20518;-71
2023/08/04 11:37:55;;;;;;;6.47;3.67;;;19.70;99.90;;;;;;5064952;28;20877;-71
2023/08/04 11:40:56;;;;;;;6.47;3.60;;;19.50;99.90;;;;;;5070048;28;20438;-71
2023/08/04 11:43:41;;;;;;;5.60;5.00;;;19.40;99.90;;;;;;5073355;28;20431;-71
2023/08/04 11:46:27;;;;;;;5.90;4.97;;;19.40;99.90;;;;;;5065009;28;20493;-72
2023/08/04 11:49:13;;;;;;;8.20;5.27;;;19.10;99.90;;;;;;5076332;28;20420;-71
2023/08/04 11:51:59;;;;;;;10.30;5.47;;;18.80;99.90;;;;;;5075154;28;20450;-71
2023/08/04 11:54:53;;;;;;;9.03;6.00;;;18.80;99.90;;;;;;5069974;28;20487;-71
2023/08/04 11:57:48;;;;;;;8.77;5.37;;;18.70;99.90;;;;;;5071052;28;20451;-71
2023/08/04 12:00:34;;;;;;;8.37;6.57;;;18.80;99.90;;;;;;5069769;28;20935;-71
2023/08/04 12:03:20;;;;;;;8.70;5.80;;;18.70;99.90;;;;;;5064012;28;20425;-71
2023/08/04 12:06:15;;;;;;;8.00;7.10;;;18.70;99.90;;;;;;5063864;28;20796;-71
2023/08/04 12:09:02;;;;;;;14.00;7.57;;;18.70;99.90;;;;;;5069787;28;21055;-71
2023/08/04 12:11:50;;;;;;;7.73;6.93;;;18.70;99.90;;;;;;5059346;28;20516;-71
2023/08/04 12:14:35;;;;;;;11.03;6.60;;;18.80;99.90;;;;;;5070344;28;20839;-71
2023/08/04 12:17:34;;;;;;;9.10;6.63;;;18.80;99.90;;;;;;5060497;28;20977;-71
2023/08/04 12:20:20;;;;;;;11.67;7.67;;;18.90;99.90;;;;;;5064423;28;20460;-71
2023/08/04 12:23:13;;;;;;;6.67;6.03;;;19.00;99.90;;;;;;5063787;28;20804;-71
2023/08/04 12:25:59;;;;;;;11.53;7.07;;;19.00;99.90;;;;;;5076065;28;20420;-71
2023/08/04 12:28:46;;;;;;;8.43;6.87;;;19.00;99.90;;;;;;5076410;28;20852;-71
2023/08/04 12:31:31;;;;;;;10.00;6.17;;;19.10;99.90;;;;;;5067479;28;21015;-71
2023/08/04 12:34:17;;;;;;;8.53;6.10;;;19.20;99.90;;;;;;5063088;28;20413;-71
2023/08/04 12:37:02;;;;;;;9.07;6.07;;;19.20;99.90;;;;;;5067028;28;20449;-72
2023/08/04 12:39:48;;;;;;;10.70;6.77;;;19.30;99.90;;;;;;5074038;28;20513;-71
2023/08/04 12:42:33;;;;;;;9.10;5.30;;;19.40;99.90;;;;;;5067342;28;20446;-71
2023/08/04 12:45:20;;;;;;;7.07;5.93;;;19.50;99.90;;;;;;5063224;28;20466;-71
2023/08/04 12:48:06;;;;;;;13.53;7.47;;;19.50;99.90;;;;;;5058309;28;20981;-71
2023/08/04 12:50:51;;;;;;;5.90;5.30;;;19.50;99.90;;;;;;5070132;28;20466;-71
2023/08/04 12:53:37;;;;;;;13.60;5.60;;;19.30;99.90;;;;;;5072496;28;20441;-71
2023/08/04 12:56:23;;;;;;;7.03;5.93;;;19.30;99.90;;;;;;5067635;28;20454;-71
2023/08/04 12:59:09;;;;;;;6.30;5.20;;;19.30;99.90;;;;;;5065579;28;20496;-71
2023/08/04 13:01:55;;;;;;;8.10;5.43;;;19.30;99.90;;;;;;5062442;28;20465;-71
2023/08/04 13:04:41;;;;;;;5.77;5.20;;;19.20;99.90;;;;;;5063072;28;20499;-72
2023/08/04 13:07:27;;;;;;;8.40;6.80;;;19.20;99.90;;;;;;5068171;28;20449;-71
2023/08/04 13:10:12;;;;;;;13.63;7.03;;;19.20;99.90;;;;;;5063541;28;20954;-72
2023/08/04 13:12:58;;;;;;;9.13;6.80;;;19.20;99.90;;;;;;5060063;28;20479;-72
2023/08/04 13:15:44;;;;;;;8.83;7.03;;;19.30;99.90;;;;;;5070642;28;20451;-72
2023/08/04 13:18:30;;;;;;;9.03;7.10;;;19.30;99.90;;;;;;5062728;28;20445;-72
2023/08/04 13:21:16;;;;;;;10.27;7.43;;;19.50;99.90;;;;;;5073157;28;20892;-73
2023/08/04 13:24:01;;;;;;;14.07;7.97;;;19.80;99.90;;;;;;5067347;28;20550;-72
2023/08/04 13:26:47;;;;;;;11.00;7.33;;;20.10;99.90;;;;;;5076664;28;20508;-72
2023/08/04 13:29:32;;;;;;;9.07;7.13;;;20.10;99.90;;;;;;5069618;28;21048;-73
2023/08/04 13:32:18;;;;;;;7.70;6.17;;;20.00;99.90;;;;;;5063169;28;21130;-73
2023/08/04 13:35:05;;;;;;;8.93;6.97;;;20.00;99.90;;;;;;5066239;28;20430;-72
2023/08/04 13:37:51;;;;;;;14.50;7.43;;;19.90;99.90;;;;;;5068819;28;20810;-73
2023/08/04 13:40:36;;;;;;;8.50;4.87;;;19.80;99.90;;;;;;5067447;28;20499;-74
2023/08/04 13:43:22;;;;;;;6.20;4.33;;;19.80;99.90;;;;;;5058905;28;20514;-74
2023/08/04 13:46:07;;;;;;;6.70;4.87;;;19.80;99.90;;;;;;5059213;28;20977;-73
2023/08/04 13:48:53;;;;;;;9.37;6.30;;;19.70;99.90;;;;;;5062903;28;20815;-73
2023/08/04 13:51:40;;;;;;;8.20;4.70;;;19.60;99.90;;;;;;5068921;28;20478;-73
2023/08/04 13:54:27;;;;;;;5.90;4.13;;;19.60;99.90;;;;;;5074137;28;20455;-73
2023/08/04 13:57:12;;;;;;;8.30;4.43;;;19.60;99.90;;;;;;5069271;28;20813;-73
2023/08/04 13:59:58;;;;;;;5.33;4.23;;;19.60;99.90;;;;;;5074893;28;20525;-73
2023/08/04 14:02:43;;;;;;;4.80;3.73;;;19.60;99.90;;;;;;5077573;28;20437;-73
2023/08/04 14:05:29;;;;;;;6.57;4.40;;;19.60;99.90;;;;;;5066898;28;20525;-73
2023/08/04 14:08:16;;;;;;;4.80;3.67;;;19.70;99.90;;;;;;5065516;28;20489;-73
2023/08/04 14:11:01;;;;;;;6.10;3.70;;;19.70;99.90;;;;;;5074949;28;20464;-72
2023/08/04 14:13:47;;;;;;;4.97;4.17;;;19.70;99.90;;;;;;5073619;28;20429;-72
2023/08/04 14:16:32;;;;;;;4.40;3.80;;;19.70;99.90;;;;;;5076487;28;20459;-72
2023/08/04 14:19:18;;;;;;;4.50;3.50;;;19.80;99.90;;;;;;5083054;28;20533;-72
2023/08/04 14:22:04;;;;;;;4.17;3.30;;;19.90;99.90;;;;;;5065740;28;20476;-72
2023/08/04 14:24:51;;;;;;;4.23;3.60;;;20.00;99.90;;;;;;5083125;28;20484;-72